Ruleville, Mississippi
Current Conditions -  °F | °C
As of 10:15 AM on Monday 24 Nov 2014 (Local Time) from KRNV Reporting Station
Clear Clear  
Wind Chill: 12°   Ceiling: Unl
Heat Index: 12°   Visibility: 10mi
Dew Point:   Wind: 13mph
Humidity: 59%   Direction: 310°NW
Pressure: 29.94"   Gusts: 17mph
Location:  33.73°N, 90.55°W
Report Text: KRNV 241615Z AUTO 31011G15KT 10SM CLR 12/04 A2994 RMK AO2 T01190042
Loading
Personal Weather Stations






























Interactive Weather Map New forecast layout! Learn more

10-Day Weather Forecast

Advertisements
Track Severe Weather on mobile